Time;durP1;ratioP1;P1;durP2;ratioP2;P2;SDS_P1;SDS_P2;PMS_P1;PMS_P2;Temp;Humidity;BMP_temperature;BMP_pressure;BME280_temperature;BME280_humidity;BME280_pressure;Samples;Min_cycle;Max_cycle;Signal;HPM_P1;HPM_P2
2022/09/21 00:01:18;;;;;;;3.83;3.30;;;;;;;15.68;53.81;102723.50;5031872;28;20057;-72
2022/09/21 00:03:44;;;;;;;10.90;3.70;;;;;;;15.73;53.62;102720.97;5032016;28;20040;-74
2022/09/21 00:06:14;;;;;;;7.03;3.20;;;;;;;15.58;53.57;102726.66;5031324;28;20038;-73
2022/09/21 00:08:40;;;;;;;6.72;3.47;;;;;;;15.57;53.76;102718.72;5031261;28;20053;-73
2022/09/21 00:11:07;;;;;;;7.68;3.72;;;;;;;15.48;53.86;102726.25;5031394;28;20470;-74
2022/09/21 00:13:36;;;;;;;11.23;3.20;;;;;;;15.48;53.76;102720.84;5031844;28;20025;-71
2022/09/21 00:16:05;;;;;;;4.70;3.55;;;;;;;15.38;53.71;102717.69;5030865;28;20057;-73
2022/09/21 00:18:32;;;;;;;5.13;3.13;;;;;;;15.35;54.11;102714.59;5031497;28;20029;-73
2022/09/21 00:20:57;;;;;;;10.75;4.32;;;;;;;15.39;53.49;102727.47;5031765;28;20034;-72
2022/09/21 00:23:23;;;;;;;6.30;3.55;;;;;;;15.41;53.38;102727.28;5031353;28;20029;-73
2022/09/21 00:25:49;;;;;;;4.25;3.13;;;;;;;15.35;53.77;102723.53;5035785;28;20022;-72
2022/09/21 00:28:14;;;;;;;5.15;3.53;;;;;;;15.37;53.70;102721.44;5034757;28;20060;-72
2022/09/21 00:30:40;;;;;;;11.38;3.70;;;;;;;15.27;53.83;102728.34;5034776;28;20544;-72
2022/09/21 00:33:06;;;;;;;7.80;3.75;;;;;;;15.18;53.95;102730.44;5034128;28;20069;-72
2022/09/21 00:35:32;;;;;;;8.20;3.60;;;;;;;15.17;53.90;102723.34;5034522;28;20052;-73
2022/09/21 00:38:01;;;;;;;5.10;3.63;;;;;;;15.22;53.49;102715.41;5033174;28;20038;-73
2022/09/21 00:40:27;;;;;;;7.90;3.67;;;;;;;15.23;53.93;102732.50;5033812;28;20124;-72
2022/09/21 00:42:52;;;;;;;7.20;3.88;;;;;;;15.26;53.98;102730.22;5034408;28;20555;-73
2022/09/21 00:45:21;;;;;;;7.95;3.47;;;;;;;15.25;53.72;102723.09;5034524;28;20527;-74
2022/09/21 00:47:51;;;;;;;7.13;3.20;;;;;;;15.20;54.10;102731.03;5034295;28;20029;-71
2022/09/21 00:50:20;;;;;;;7.88;3.40;;;;;;;15.13;54.21;102732.09;5034465;28;20056;-72
2022/09/21 00:52:54;;;;;;;3.38;2.80;;;;;;;15.17;54.45;102731.47;5034995;28;20046;-72
2022/09/21 00:55:43;;;;;;;2.83;2.58;;;;;;;15.17;54.25;102731.47;5034101;28;20037;-72
2022/09/21 00:58:18;;;;;;;4.78;2.95;;;;;;;15.27;53.77;102731.06;5035995;28;20033;-73
2022/09/21 01:00:44;;;;;;;8.48;3.35;;;;;;;15.17;53.71;102736.91;5034280;28;20117;-73
2022/09/21 01:03:11;;;;;;;9.60;3.60;;;;;;;15.22;53.47;102733.53;5034100;28;20087;-72
2022/09/21 01:05:37;;;;;;;4.78;3.30;;;;;;;15.02;53.94;102727.31;5034047;28;20508;-72
2022/09/21 01:08:06;;;;;;;6.32;3.13;;;;;;;15.06;53.76;102732.09;5034475;28;20068;-73
2022/09/21 01:11:07;;;;;;;8.10;2.80;;;;;;;15.25;53.19;102733.94;5034336;28;20029;-73
2022/09/21 01:13:51;;;;;;;6.03;3.70;;;;;;;15.24;53.44;102734.16;5033895;28;20106;-73
2022/09/21 01:16:43;;;;;;;6.22;3.17;;;;;;;15.16;53.27;102723.53;5033450;28;20049;-71
2022/09/21 01:19:26;;;;;;;6.65;3.80;;;;;;;15.10;53.85;102732.50;5033999;28;20091;-74
2022/09/21 01:22:06;;;;;;;4.85;3.00;;;;;;;15.02;53.78;102730.84;5049111;28;20037;-73
2022/09/21 01:24:47;;;;;;;7.15;3.33;;;;;;;15.00;53.57;102724.81;5034122;28;20040;-72
2022/09/21 01:27:24;;;;;;;11.18;3.65;;;;;;;15.06;53.94;102726.69;5033926;28;20088;-72
2022/09/21 01:30:05;;;;;;;5.35;3.63;;;;;;;15.11;53.50;102734.19;5012763;28;20061;-73
2022/09/21 01:32:50;;;;;;;4.53;3.22;;;;;;;14.95;54.08;102730.03;5026556;28;20037;-72
2022/09/21 01:35:34;;;;;;;10.75;3.50;;;;;;;15.04;53.50;102726.06;5033508;28;20068;-72
2022/09/21 01:38:07;;;;;;;5.53;3.08;;;;;;;14.90;53.79;102721.66;5034173;28;20060;-73
2022/09/21 01:40:40;;;;;;;6.35;3.90;;;;;;;14.93;53.62;102729.41;5033737;28;20073;-72
2022/09/21 01:43:10;;;;;;;6.22;3.25;;;;;;;14.87;54.10;102727.50;5033500;28;20057;-73
2022/09/21 01:45:43;;;;;;;10.02;3.83;;;;;;;14.90;53.20;102722.50;5033273;28;20044;-71
2022/09/21 01:48:10;;;;;;;5.72;3.42;;;;;;;14.88;53.58;102718.34;5033241;28;20048;-72
2022/09/21 01:50:43;;;;;;;10.70;3.20;;;;;;;14.79;53.72;102725.84;5032313;28;20355;-72
2022/09/21 01:53:26;;;;;;;8.43;4.20;;;;;;;14.86;53.29;102723.97;5033342;28;20061;-73
2022/09/21 01:55:59;;;;;;;6.55;3.80;;;;;;;14.79;53.63;102725.84;5035240;28;20052;-71
2022/09/21 01:58:48;;;;;;;7.57;3.63;;;;;;;14.84;53.18;102717.94;5033287;28;20072;-72
2022/09/21 02:01:18;;;;;;;6.65;3.30;;;;;;;14.80;53.52;102721.28;5033340;28;20130;-72
2022/09/21 02:04:01;;;;;;;5.50;4.00;;;;;;;14.64;53.82;102727.09;5033052;28;20034;-73
2022/09/21 02:06:29;;;;;;;4.35;3.20;;;;;;;14.55;53.98;102718.31;5033016;28;20478;-74
2022/09/21 02:08:56;;;;;;;5.72;2.50;;;;;;;14.71;54.20;102725.19;5033235;28;20478;-73
2022/09/21 02:11:22;;;;;;;4.15;3.20;;;;;;;14.85;54.30;102718.78;5033265;28;20037;-74
2022/09/21 02:13:51;;;;;;;8.38;3.47;;;;;;;14.69;53.89;102721.88;5033505;28;20087;-74
2022/09/21 02:16:38;;;;;;;4.60;3.40;;;;;;;14.67;54.06;102722.09;5032598;28;20045;-73
2022/09/21 02:19:11;;;;;;;9.30;3.40;;;;;;;14.69;54.14;102724.56;5032226;28;20647;-73
2022/09/21 02:21:49;;;;;;;4.60;3.20;;;;;;;14.71;54.07;102717.94;5031954;28;20099;-73
2022/09/21 02:24:42;;;;;;;3.95;3.30;;;;;;;14.69;53.62;102720.00;5031747;28;20095;-72
2022/09/21 02:27:23;;;;;;;5.10;2.83;;;;;;;14.63;53.91;102723.53;5032164;28;20064;-73
2022/09/21 02:30:20;;;;;;;8.15;3.40;;;;;;;14.61;53.80;102722.91;5012410;28;20125;-74
2022/09/21 02:33:12;;;;;;;3.95;2.78;;;;;;;14.75;53.40;102726.47;5026133;28;20393;-74
2022/09/21 02:35:58;;;;;;;6.72;3.33;;;;;;;14.76;54.12;102718.13;5031896;28;20033;-74
2022/09/21 02:38:34;;;;;;;7.55;3.20;;;;;;;14.74;53.76;102717.50;5031780;28;20062;-74
2022/09/21 02:41:15;;;;;;;3.75;3.00;;;;;;;14.61;53.95;102720.19;5031948;28;20374;-73
2022/09/21 02:43:57;;;;;;;5.40;3.33;;;;;;;14.72;53.80;102716.88;5032343;28;20030;-74
2022/09/21 02:46:30;;;;;;;5.15;3.60;;;;;;;14.61;53.79;102722.91;5032729;28;20516;-73
2022/09/21 02:49:15;;;;;;;3.47;2.97;;;;;;;14.49;53.45;102724.53;5032666;28;20096;-72
2022/09/21 02:51:51;;;;;;;5.55;3.33;;;;;;;14.44;53.83;102713.53;5034515;28;20037;-73
2022/09/21 02:54:19;;;;;;;10.27;3.17;;;;;;;14.49;53.93;102715.59;5032809;28;20501;-72
2022/09/21 02:56:47;;;;;;;7.32;3.33;;;;;;;14.50;53.91;102715.41;5032699;28;20401;-73
2022/09/21 02:59:15;;;;;;;6.50;3.38;;;;;;;14.46;54.10;102713.31;5032673;28;20461;-72
2022/09/21 03:01:41;;;;;;;3.72;3.28;;;;;;;14.58;53.52;102720.63;5032575;28;20052;-73
2022/09/21 03:04:08;;;;;;;5.05;3.15;;;;;;;14.57;53.46;102712.69;5032316;28;20111;-73
2022/09/21 03:06:33;;;;;;;6.63;4.15;;;;;;;14.42;53.52;102715.59;5032524;28;20481;-72
2022/09/21 03:08:59;;;;;;;5.00;3.17;;;;;;;14.41;53.67;102719.31;5032444;28;20052;-73
2022/09/21 03:11:25;;;;;;;5.18;3.38;;;;;;;14.45;53.55;102722.44;5032384;28;20087;-73
2022/09/21 03:13:50;;;;;;;5.05;3.65;;;;;;;14.47;53.72;102718.50;5032916;28;20025;-73
2022/09/21 03:16:16;;;;;;;10.27;3.70;;;;;;;14.46;53.74;102721.41;5031490;28;20471;-72
2022/09/21 03:18:43;;;;;;;7.32;4.03;;;;;;;14.50;53.58;102723.53;5031837;28;20037;-73
2022/09/21 03:21:09;;;;;;;10.15;4.45;;;;;;;14.37;53.61;102725.38;5031941;28;20037;-73
2022/09/21 03:23:34;;;;;;;5.72;3.78;;;;;;;14.43;53.52;102727.22;5031904;28;20091;-74
2022/09/21 03:26:02;;;;;;;5.65;3.58;;;;;;;14.38;53.49;102719.75;5030810;28;20026;-73
2022/09/21 03:28:28;;;;;;;5.55;3.78;;;;;;;14.38;53.53;102717.03;5032151;28;20029;-74
2022/09/21 03:30:53;;;;;;;6.85;3.50;;;;;;;14.32;53.71;102727.84;5030355;28;20041;-73
2022/09/21 03:33:19;;;;;;;10.48;4.93;;;;;;;14.30;53.81;102728.03;5031600;28;20456;-73
2022/09/21 03:35:46;;;;;;;8.82;4.20;;;;;;;14.34;53.80;102726.59;5031392;28;20041;-73
2022/09/21 03:38:11;;;;;;;8.82;3.97;;;;;;;14.30;53.92;102730.75;5031695;28;20087;-74
2022/09/21 03:40:37;;;;;;;6.25;3.55;;;;;;;14.31;54.25;102732.41;5031968;28;20444;-73
2022/09/21 03:43:03;;;;;;;5.10;4.18;;;;;;;14.25;54.06;102727.75;5031638;28;20048;-72
2022/09/21 03:45:28;;;;;;;8.10;4.05;;;;;;;14.21;54.11;102733.81;5031525;28;20045;-74
2022/09/21 03:47:56;;;;;;;7.00;4.28;;;;;;;14.18;54.23;102732.34;5033269;28;20508;-72
2022/09/21 03:50:22;;;;;;;7.50;3.72;;;;;;;14.19;53.93;102734.00;5031536;28;20042;-73
2022/09/21 03:52:48;;;;;;;4.93;3.63;;;;;;;14.18;54.01;102732.34;5030527;28;20040;-72
2022/09/21 03:55:14;;;;;;;8.27;3.13;;;;;;;14.26;53.63;102734.03;5031243;28;20034;-74
2022/09/21 03:57:39;;;;;;;5.15;3.83;;;;;;;14.17;54.38;102733.34;5031451;28;20041;-74
2022/09/21 04:00:08;;;;;;;4.53;3.28;;;;;;;14.14;54.16;102736.47;5035451;28;20121;-72
2022/09/21 04:02:35;;;;;;;5.93;3.13;;;;;;;14.08;53.76;102737.28;5031961;28;20033;-72
2022/09/21 04:05:01;;;;;;;9.23;3.03;;;;;;;14.11;54.31;102735.00;5034627;28;20029;-73
2022/09/21 04:07:33;;;;;;;4.45;3.72;;;;;;;14.08;54.40;102731.88;5035092;28;20083;-71
2022/09/21 04:09:58;;;;;;;4.88;2.95;;;;;;;14.08;54.57;102730.00;5032661;28;20116;-72
2022/09/21 04:12:24;;;;;;;5.28;3.00;;;;;;;14.15;54.16;102731.91;5026878;28;20443;-72
2022/09/21 04:14:49;;;;;;;3.88;3.08;;;;;;;14.06;54.51;102732.09;5034899;28;20022;-73
2022/09/21 04:17:15;;;;;;;10.85;3.70;;;;;;;14.11;54.25;102729.59;5034522;28;20128;-73
2022/09/21 04:19:40;;;;;;;3.90;3.10;;;;;;;13.88;54.62;102737.19;5035160;28;20510;-73
2022/09/21 04:22:05;;;;;;;6.05;2.83;;;;;;;13.99;54.05;102731.22;5034934;28;20505;-74
2022/09/21 04:24:31;;;;;;;3.75;2.40;;;;;;;13.95;54.27;102734.53;5034767;28;20542;-74
2022/09/21 04:26:56;;;;;;;22.65;2.35;;;;;;;13.49;55.89;102744.25;5033685;28;20034;-73
2022/09/21 04:29:21;;;;;;;8.68;2.75;;;;;;;13.17;56.61;102748.38;5034715;28;20033;-73
2022/09/21 04:31:47;;;;;;;5.82;2.33;;;;;;;12.97;57.28;102755.44;5034947;28;20030;-73
2022/09/21 04:34:13;;;;;;;4.93;2.20;;;;;;;13.38;56.22;102755.59;5034683;28;20458;-73
2022/09/21 04:36:38;;;;;;;2.22;2.03;;;;;;;13.53;55.66;102746.34;5034514;28;20048;-73
2022/09/21 04:39:04;;;;;;;2.28;2.08;;;;;;;13.61;55.13;102746.19;5034500;28;20033;-72
2022/09/21 04:41:30;;;;;;;2.42;1.92;;;;;;;13.67;55.10;102748.09;5034594;28;20112;-71
2022/09/21 04:43:55;;;;;;;2.70;2.00;;;;;;;13.76;54.86;102744.19;5036266;28;20096;-71
2022/09/21 04:46:21;;;;;;;2.63;2.40;;;;;;;13.73;54.60;102747.31;5034760;28;20041;-73
2022/09/21 04:48:47;;;;;;;2.65;2.25;;;;;;;13.69;54.75;102750.59;5034078;28;20044;-73
2022/09/21 04:51:14;;;;;;;2.72;2.28;;;;;;;13.60;54.88;102746.41;5033904;28;20068;-74
2022/09/21 04:53:41;;;;;;;2.58;2.33;;;;;;;13.54;54.85;102748.00;5032835;28;20029;-72
2022/09/21 04:56:12;;;;;;;2.50;2.30;;;;;;;13.51;55.22;102750.28;5030213;28;20037;-73
2022/09/21 04:58:38;;;;;;;8.02;2.33;;;;;;;13.63;55.07;102756.81;5033248;28;20030;-72
2022/09/21 05:01:05;;;;;;;2.60;2.35;;;;;;;13.55;55.11;102752.41;5032911;28;20037;-73
2022/09/21 05:03:30;;;;;;;5.28;2.47;;;;;;;13.58;54.90;102749.28;5032550;28;20034;-73
2022/09/21 05:05:57;;;;;;;2.50;2.28;;;;;;;13.60;54.37;102755.31;5032539;28;20064;-73
2022/09/21 05:11:14;;;;;;;2.40;2.20;;;;;;;13.52;54.84;102763.56;5035746;28;20061;-74
2022/09/21 05:13:40;;;;;;;3.38;2.42;;;;;;;13.51;54.62;102753.81;5054446;28;20017;-74
2022/09/21 05:16:06;;;;;;;3.55;2.47;;;;;;;13.56;54.41;102762.16;5029449;28;20520;-73
2022/09/21 05:18:31;;;;;;;3.25;2.55;;;;;;;13.49;54.56;102760.44;5033061;28;20063;-73
2022/09/21 05:20:59;;;;;;;6.05;2.58;;;;;;;13.45;55.27;102769.97;5032990;28;20060;-74
2022/09/21 05:23:25;;;;;;;4.85;2.42;;;;;;;13.47;55.45;102767.91;5042469;28;20033;-74
2022/09/21 05:25:51;;;;;;;4.80;2.38;;;;;;;13.48;55.04;102770.44;5042026;28;20032;-74
2022/09/21 05:28:18;;;;;;;2.65;2.42;;;;;;;13.58;54.71;102773.59;5033081;28;20500;-74
2022/09/21 05:30:47;;;;;;;2.88;2.10;;;;;;;13.54;54.66;102775.03;5031895;28;20029;-73
2022/09/21 05:33:18;;;;;;;3.60;2.60;;;;;;;13.56;54.57;102780.25;5031515;28;20060;-71
2022/09/21 05:36:10;;;;;;;3.53;2.63;;;;;;;13.64;54.61;102780.91;5032945;28;20037;-71
2022/09/21 05:38:36;;;;;;;3.05;2.75;;;;;;;13.64;54.51;102777.41;5031339;28;20524;-71
2022/09/21 05:41:02;;;;;;;10.73;3.08;;;;;;;13.61;54.75;102788.59;5034734;28;20037;-70
2022/09/21 05:43:28;;;;;;;4.88;3.53;;;;;;;13.70;54.35;102785.53;5033708;28;20489;-72
2022/09/21 05:46:10;;;;;;;7.32;3.10;;;;;;;13.71;54.67;102787.22;5040743;28;20112;-72
2022/09/21 05:48:40;;;;;;;8.52;3.08;;;;;;;13.72;54.47;102783.47;5034467;28;20037;-70
2022/09/21 05:51:29;;;;;;;4.88;3.30;;;;;;;13.76;54.70;102787.44;5013526;28;20117;-71
2022/09/21 05:54:31;;;;;;;6.45;2.63;;;;;;;13.83;54.70;102782.06;5013461;28;20040;-73
2022/09/21 05:57:25;;;;;;;3.95;3.10;;;;;;;13.88;54.65;102782.31;5013048;28;20038;-72
2022/09/21 06:00:09;;;;;;;5.15;3.00;;;;;;;13.83;54.87;102785.63;5013255;28;20037;-72
2022/09/21 06:02:49;;;;;;;4.10;3.33;;;;;;;13.84;55.56;102783.72;5012988;28;20037;-71
2022/09/21 06:05:16;;;;;;;9.60;4.18;;;;;;;13.95;54.71;102791.31;5012823;28;20037;-70
2022/09/21 06:07:41;;;;;;;4.65;3.35;;;;;;;13.94;55.00;102793.16;5028715;28;20069;-71
2022/09/21 06:10:08;;;;;;;7.15;4.70;;;;;;;13.80;55.52;102787.88;5013013;28;20386;-72
2022/09/21 06:12:34;;;;;;;4.95;3.15;;;;;;;13.93;55.14;102790.66;5013042;28;20557;-70
2022/09/21 06:14:59;;;;;;;5.63;3.17;;;;;;;13.95;55.03;102785.91;5013115;28;20136;-70
2022/09/21 06:17:26;;;;;;;8.05;3.30;;;;;;;14.03;55.50;102794.66;5025009;28;20103;-72
2022/09/21 06:19:52;;;;;;;4.20;3.30;;;;;;;13.97;55.32;102802.75;5028014;28;20071;-72
2022/09/21 06:22:17;;;;;;;3.72;3.42;;;;;;;14.09;55.50;102796.56;5030943;28;20033;-70
2022/09/21 06:24:43;;;;;;;7.93;3.65;;;;;;;14.28;55.04;102797.72;5031391;28;20544;-70
2022/09/21 06:27:08;;;;;;;8.15;3.58;;;;;;;14.37;55.23;102795.69;5030893;28;20706;-71
2022/09/21 06:29:33;;;;;;;4.53;3.20;;;;;;;14.40;54.91;102795.28;5030694;28;20112;-71
2022/09/21 06:32:01;;;;;;;7.07;3.42;;;;;;;14.49;55.09;102794.88;5029489;28;20121;-72
2022/09/21 06:34:27;;;;;;;4.95;3.53;;;;;;;14.50;55.34;102791.16;5041412;28;20090;-71
2022/09/21 06:36:52;;;;;;;9.60;4.22;;;;;;;14.59;54.98;102800.75;5027859;28;20076;-70
2022/09/21 06:39:17;;;;;;;6.65;4.03;;;;;;;14.62;55.36;102796.81;5024662;28;20054;-71
2022/09/21 06:41:43;;;;;;;10.65;4.15;;;;;;;14.75;55.08;102794.97;5030499;28;20103;-71
2022/09/21 06:44:08;;;;;;;7.68;5.22;;;;;;;14.82;54.56;102798.50;5030870;28;20072;-72
2022/09/21 06:46:33;;;;;;;7.30;4.55;;;;;;;14.91;54.50;102800.00;5030290;28;20061;-70
2022/09/21 06:48:59;;;;;;;6.55;5.43;;;;;;;15.05;54.20;102792.72;5030802;28;20076;-71
2022/09/21 06:51:24;;;;;;;15.30;6.88;;;;;;;15.17;53.99;102795.63;5030154;28;20057;-71
2022/09/21 06:53:54;;;;;;;10.88;5.93;;;;;;;15.24;53.98;102796.47;5030044;28;20033;-72
2022/09/21 06:56:19;;;;;;;9.93;6.07;;;;;;;15.29;54.22;102800.19;5029419;28;20120;-72
2022/09/21 06:58:46;;;;;;;11.70;7.13;;;;;;;15.34;54.86;102802.28;5030570;28;20129;-69
2022/09/21 07:01:13;;;;;;;11.25;6.88;;;;;;;15.38;54.91;102804.38;5030273;28;20038;-70
2022/09/21 07:03:39;;;;;;;8.93;6.78;;;;;;;15.44;54.60;102802.75;5030476;28;20060;-71
2022/09/21 07:06:05;;;;;;;12.48;7.35;;;;;;;15.60;54.28;102808.59;5030168;28;20045;-71
2022/09/21 07:08:31;;;;;;;12.25;7.22;;;;;;;15.70;54.30;102803.53;5030347;28;20083;-70
2022/09/21 07:11:01;;;;;;;13.60;8.48;;;;;;;15.80;54.54;102801.22;5030724;28;20037;-71
2022/09/21 07:13:27;;;;;;;19.35;10.40;;;;;;;15.90;54.61;102800.78;5031166;28;20049;-70
2022/09/21 07:15:52;;;;;;;13.18;8.85;;;;;;;16.02;54.47;102804.50;5029459;28;20396;-71
2022/09/21 07:18:18;;;;;;;14.38;9.52;;;;;;;16.13;54.40;102805.72;5028697;28;20104;-70
2022/09/21 07:20:43;;;;;;;15.55;8.82;;;;;;;16.20;54.42;102811.97;5029960;28;20033;-72
2022/09/21 07:23:14;;;;;;;15.43;8.18;;;;;;;16.31;54.74;102814.84;5029507;28;20037;-71
2022/09/21 07:25:40;;;;;;;14.00;8.73;;;;;;;16.42;54.51;102810.63;5030661;28;20514;-73
2022/09/21 07:28:06;;;;;;;15.75;9.20;;;;;;;16.47;54.53;102817.06;5029687;28;20121;-72
2022/09/21 07:30:31;;;;;;;15.32;8.80;;;;;;;16.57;54.67;102812.03;5029654;28;20054;-70
2022/09/21 07:32:57;;;;;;;22.38;7.60;;;;;;;16.69;54.94;102812.19;5033881;28;20033;-71
2022/09/21 07:35:23;;;;;;;18.00;8.63;;;;;;;16.81;54.59;102817.75;5034035;28;20571;-70
2022/09/21 07:37:48;;;;;;;13.85;7.28;;;;;;;16.96;55.42;102804.72;5034458;28;20029;-73
2022/09/21 07:40:13;;;;;;;13.68;6.05;;;;;;;17.05;54.96;102808.81;5034134;28;20199;-72
2022/09/21 07:42:39;;;;;;;15.07;6.70;;;;;;;17.20;54.77;102807.44;5033582;28;20041;-70
2022/09/21 07:45:04;;;;;;;17.77;7.50;;;;;;;17.32;54.61;102807.56;5033464;28;20532;-71
2022/09/21 07:47:30;;;;;;;15.02;5.60;;;;;;;17.47;55.15;102799.91;5033802;28;20682;-71
2022/09/21 07:49:55;;;;;;;10.95;4.80;;;;;;;17.59;54.58;102806.31;5033340;28;20370;-71
2022/09/21 07:52:21;;;;;;;13.02;5.22;;;;;;;17.65;54.39;102807.31;5034053;28;20044;-72
2022/09/21 07:54:47;;;;;;;9.55;5.03;;;;;;;17.71;54.28;102811.84;5033321;28;20042;-72
2022/09/21 07:59:57;;;;;;;12.45;4.18;;;;;;;17.85;54.43;102802.47;5033442;28;20045;-72
2022/09/21 08:02:23;;;;;;;13.20;5.25;;;;;;;17.91;54.53;102804.28;5033460;28;20401;-72
2022/09/21 08:04:48;;;;;;;8.45;4.75;;;;;;;17.94;54.49;102801.97;5033455;28;20038;-70
2022/09/21 08:07:14;;;;;;;10.63;3.97;;;;;;;18.11;54.65;102800.31;5032991;28;20040;-69
2022/09/21 08:09:40;;;;;;;20.42;4.47;;;;;;;18.24;54.18;102804.75;5033429;28;20030;-71
2022/09/21 08:12:06;;;;;;;11.10;3.63;;;;;;;18.31;53.93;102809.06;5033148;28;20040;-71
2022/09/21 08:14:32;;;;;;;13.27;4.53;;;;;;;18.29;53.56;102799.47;5034530;28;20033;-71
2022/09/21 08:16:57;;;;;;;7.72;3.20;;;;;;;18.49;53.30;102799.25;5032514;28;20045;-71
2022/09/21 08:19:24;;;;;;;15.18;4.30;;;;;;;18.61;53.42;102791.94;5033243;28;20041;-70
2022/09/21 08:21:50;;;;;;;9.77;2.78;;;;;;;18.69;53.31;102802.53;5031098;28;20606;-70
2022/09/21 08:24:15;;;;;;;11.85;2.50;;;;;;;18.77;53.39;102808.47;5032087;28;20064;-71
2022/09/21 08:26:41;;;;;;;13.18;3.45;;;;;;;18.83;52.83;102809.44;5032700;28;20069;-71
2022/09/21 08:29:07;;;;;;;9.35;2.38;;;;;;;19.01;52.55;102806.63;5035273;28;20033;-70
2022/09/21 08:31:32;;;;;;;9.95;2.65;;;;;;;18.78;52.20;102812.84;5034295;28;20200;-70
2022/09/21 08:33:59;;;;;;;9.45;2.45;;;;;;;19.01;52.08;102814.81;5032977;28;20030;-73
2022/09/21 08:36:25;;;;;;;7.18;2.83;;;;;;;18.79;52.09;102814.50;5033039;28;20037;-70
2022/09/21 08:38:50;;;;;;;8.80;2.33;;;;;;;19.35;51.50;102810.53;5032171;28;20048;-70
2022/09/21 08:41:33;;;;;;;12.63;3.30;;;;;;;19.46;51.14;102817.91;5027907;28;20053;-70
2022/09/21 08:44:07;;;;;;;14.25;3.38;;;;;;;19.59;51.39;102812.22;5029941;28;20137;-72
2022/09/21 08:46:35;;;;;;;12.82;2.28;;;;;;;19.60;51.23;102819.31;5040255;28;20034;-70
2022/09/21 08:49:21;;;;;;;14.82;2.22;;;;;;;19.70;49.87;102822.28;5040515;28;20033;-71
2022/09/21 08:51:56;;;;;;;7.97;2.63;;;;;;;19.83;49.04;102822.88;5031581;28;20030;-71
2022/09/21 08:54:43;;;;;;;12.45;2.17;;;;;;;20.04;49.10;102815.97;5028645;28;20029;-71
2022/09/21 08:57:13;;;;;;;11.82;2.40;;;;;;;20.22;48.71;102821.31;5030423;28;20049;-72
2022/09/21 08:59:47;;;;;;;10.80;1.70;;;;;;;20.31;48.75;102822.59;5029303;28;20037;-72
2022/09/21 09:02:34;;;;;;;11.55;2.60;;;;;;;20.43;48.54;102819.81;5031811;28;20040;-71
2022/09/21 09:05:14;;;;;;;7.55;1.73;;;;;;;20.31;49.21;102816.28;5029314;28;20018;-71
2022/09/21 09:08:03;;;;;;;7.07;2.42;;;;;;;20.50;48.70;102815.06;5030297;28;20025;-70
2022/09/21 09:10:55;;;;;;;5.68;1.50;;;;;;;20.66;48.24;102822.44;5030289;28;20533;-73
2022/09/21 09:13:23;;;;;;;9.18;1.95;;;;;;;20.63;48.17;102826.53;5031352;28;20051;-72
2022/09/21 09:16:02;;;;;;;9.45;1.77;;;;;;;20.89;48.42;102822.38;5030720;28;20379;-69
2022/09/21 09:18:33;;;;;;;9.15;1.80;;;;;;;20.90;47.74;102821.28;5029620;28;20040;-70
2022/09/21 09:21:13;;;;;;;8.93;1.65;;;;;;;20.70;48.65;102831.81;5028397;28;20037;-73
2022/09/21 09:24:03;;;;;;;12.32;2.20;;;;;;;20.93;47.05;102829.81;5027714;28;20390;-71
2022/09/21 09:26:41;;;;;;;22.65;3.10;;;;;;;20.66;47.23;102834.22;5029507;28;20590;-71
2022/09/21 09:29:27;;;;;;;11.90;1.98;;;;;;;21.16;46.36;102831.63;5029028;28;20033;-71
2022/09/21 09:31:54;;;;;;;9.65;2.10;;;;;;;21.03;46.99;102831.94;5029813;28;20052;-71
2022/09/21 09:34:31;;;;;;;11.10;3.30;;;;;;;21.09;46.60;102830.13;5030588;28;20029;-70
2022/09/21 09:36:59;;;;;;;6.32;2.45;;;;;;;21.40;45.78;102829.56;5028236;28;20470;-71
2022/09/21 09:39:27;;;;;;;10.40;1.75;;;;;;;21.35;46.22;102827.56;5030565;28;20148;-70
2022/09/21 09:42:23;;;;;;;9.52;1.63;;;;;;;21.49;45.67;102833.53;5030558;28;20026;-69
2022/09/21 09:44:56;;;;;;;10.07;1.80;;;;;;;21.74;44.89;102839.41;5030223;28;20117;-70
2022/09/21 09:47:24;;;;;;;11.20;1.45;;;;;;;21.66;44.92;102837.91;5028838;28;20033;-71
2022/09/21 09:50:08;;;;;;;11.32;1.40;;;;;;;21.73;44.86;102838.59;5030751;28;20037;-71
2022/09/21 09:52:34;;;;;;;7.30;1.30;;;;;;;21.67;45.08;102833.28;5029922;28;20041;-71
2022/09/21 09:55:10;;;;;;;9.57;1.98;;;;;;;20.65;46.47;102837.19;5031288;28;20044;-71
2022/09/21 09:57:36;;;;;;;9.77;1.55;;;;;;;21.07;45.51;102835.03;5026568;28;20512;-70
2022/09/21 10:00:10;;;;;;;7.57;1.83;;;;;;;21.15;45.12;102829.16;5031275;28;20041;-70
2022/09/21 10:02:49;;;;;;;8.25;1.92;;;;;;;21.58;44.75;102829.31;5029185;28;20048;-70
2022/09/21 10:05:23;;;;;;;9.45;1.30;;;;;;;22.07;44.01;102822.13;5031759;28;20030;-72
2022/09/21 10:07:49;;;;;;;4.75;0.80;;;;;;;22.04;42.68;102817.13;5041264;28;20043;-72
2022/09/21 10:10:27;;;;;;;9.88;1.63;;;;;;;22.12;42.71;102822.16;5031502;28;20053;-70
2022/09/21 10:12:55;;;;;;;9.18;1.60;;;;;;;22.12;43.47;102811.22;5028938;28;20477;-72
2022/09/21 10:15:23;;;;;;;4.90;1.65;;;;;;;21.60;44.34;102819.75;5030233;28;20127;-71
2022/09/21 10:18:09;;;;;;;10.80;2.10;;;;;;;21.39;44.15;102815.06;5030132;28;20033;-70
2022/09/21 10:20:35;;;;;;;8.20;1.50;;;;;;;21.19;44.06;102813.91;5029173;28;20052;-70
2022/09/21 10:23:04;;;;;;;7.90;1.23;;;;;;;21.91;43.22;102804.66;5030792;28;20481;-70
2022/09/21 10:25:30;;;;;;;5.00;1.15;;;;;;;21.64;43.98;102809.16;5029900;28;20065;-71
2022/09/21 10:27:55;;;;;;;6.38;1.23;;;;;;;21.79;42.30;102810.22;5045570;28;20098;-71
2022/09/21 10:30:31;;;;;;;5.88;1.60;;;;;;;22.35;42.24;102800.00;5031014;28;20107;-69
2022/09/21 10:32:58;;;;;;;9.50;1.60;;;;;;;22.14;41.69;102809.06;5026709;28;20049;-70
2022/09/21 10:35:24;;;;;;;4.53;0.80;;;;;;;21.80;41.48;102806.41;5030613;28;20493;-70
2022/09/21 10:38:09;;;;;;;11.23;1.25;;;;;;;21.86;41.12;102809.25;5029186;28;20029;-69
2022/09/21 10:40:36;;;;;;;9.85;1.45;;;;;;;22.20;40.63;102808.88;5030011;28;20048;-71
2022/09/21 10:43:02;;;;;;;14.38;1.98;;;;;;;22.65;40.54;102811.34;5030532;28;20099;-70
2022/09/21 10:45:30;;;;;;;6.93;1.85;;;;;;;22.76;40.34;102795.84;5029337;28;20052;-71
2022/09/21 10:48:05;;;;;;;5.03;1.30;;;;;;;23.16;39.12;102808.00;5027778;28;20037;-69
2022/09/21 10:50:44;;;;;;;8.95;1.20;;;;;;;23.02;38.90;102811.44;5028978;28;20037;-72
2022/09/21 10:53:32;;;;;;;5.65;0.93;;;;;;;23.03;38.89;102807.63;5029420;28;20421;-71
2022/09/21 10:56:15;;;;;;;7.97;0.98;;;;;;;22.97;37.83;102806.75;5029455;28;20029;-70
2022/09/21 10:59:18;;;;;;;7.32;1.20;;;;;;;22.94;40.33;102806.44;5029982;28;20027;-71
2022/09/21 11:01:50;;;;;;;5.75;1.30;;;;;;;23.47;38.52;102798.94;5029699;28;20737;-72
2022/09/21 11:04:28;;;;;;;6.63;1.20;;;;;;;23.53;39.09;102799.81;5029589;28;20037;-70
2022/09/21 11:07:26;;;;;;;6.00;1.27;;;;;;;23.96;38.09;102805.00;5030038;28;20284;-69
2022/09/21 11:10:15;;;;;;;6.30;2.47;;;;;;;23.72;37.74;102801.06;5028368;28;20044;-69
2022/09/21 11:13:08;;;;;;;9.77;1.58;;;;;;;23.81;37.81;102798.63;5028640;28;20034;-71
2022/09/21 11:15:52;;;;;;;9.10;1.08;;;;;;;23.84;37.37;102798.09;5030338;28;20049;-69
2022/09/21 11:18:40;;;;;;;5.13;0.90;;;;;;;23.47;36.88;102801.69;5028952;28;20091;-70
2022/09/21 11:21:25;;;;;;;13.02;1.25;;;;;;;23.56;36.63;102788.31;5026252;28;20034;-71
2022/09/21 11:23:59;;;;;;;9.23;1.00;;;;;;;23.95;34.43;102799.78;5030081;28;20082;-69
2022/09/21 11:26:34;;;;;;;8.15;1.10;;;;;;;23.14;36.30;102796.47;5028989;28;20494;-69
2022/09/21 11:29:10;;;;;;;5.70;0.98;;;;;;;23.34;36.02;102798.56;5025730;28;20041;-70
2022/09/21 11:32:03;;;;;;;5.93;1.20;;;;;;;23.31;36.00;102794.44;5030920;28;20087;-69
2022/09/21 11:34:46;;;;;;;4.05;0.90;;;;;;;23.99;36.26;102790.75;5029647;28;20029;-70
2022/09/21 11:37:49;;;;;;;3.80;0.77;;;;;;;24.31;34.82;102791.47;5029432;28;20037;-70
2022/09/21 11:40:31;;;;;;;5.40;1.38;;;;;;;24.38;33.54;102783.81;5029626;28;20079;-69
2022/09/21 11:43:03;;;;;;;6.68;1.48;;;;;;;24.53;34.94;102784.94;5025037;28;20529;-73
2022/09/21 11:45:51;;;;;;;8.60;0.90;;;;;;;25.02;33.62;102783.41;5029629;28;20462;-71
2022/09/21 11:48:37;;;;;;;3.13;1.08;;;;;;;24.85;32.83;102777.31;5029617;28;20052;-70
2022/09/21 11:51:43;;;;;;;3.72;0.88;;;;;;;24.55;32.99;102778.06;5025829;28;20709;-71